sensor_id;sensor_type;location;lat;lon;timestamp;P1;durP1;ratioP1;P2;durP2;ratioP2
68310;SDS011;55157;51.036;17.058;2023-07-29T00:01:01;3.15;;;1.90;;
68310;SDS011;55157;51.036;17.058;2023-07-29T00:03:28;6.85;;;2.10;;
68310;SDS011;55157;51.036;17.058;2023-07-29T00:05:53;8.52;;;2.20;;
68310;SDS011;55157;51.036;17.058;2023-07-29T00:08:18;6.35;;;2.72;;
68310;SDS011;55157;51.036;17.058;2023-07-29T00:10:44;4.25;;;2.38;;
68310;SDS011;55157;51.036;17.058;2023-07-29T00:13:09;4.05;;;2.10;;
68310;SDS011;55157;51.036;17.058;2023-07-29T00:15:34;3.40;;;2.10;;
68310;SDS011;55157;51.036;17.058;2023-07-29T00:17:59;3.03;;;1.95;;
68310;SDS011;55157;51.036;17.058;2023-07-29T00:20:26;6.85;;;2.75;;
68310;SDS011;55157;51.036;17.058;2023-07-29T00:22:51;6.20;;;2.20;;
68310;SDS011;55157;51.036;17.058;2023-07-29T00:25:17;11.13;;;2.28;;
68310;SDS011;55157;51.036;17.058;2023-07-29T00:27:42;7.40;;;2.22;;
68310;SDS011;55157;51.036;17.058;2023-07-29T00:30:07;7.93;;;2.22;;
68310;SDS011;55157;51.036;17.058;2023-07-29T00:32:33;3.08;;;2.20;;
68310;SDS011;55157;51.036;17.058;2023-07-29T00:34:58;9.63;;;3.05;;
68310;SDS011;55157;51.036;17.058;2023-07-29T00:37:25;4.75;;;2.30;;
68310;SDS011;55157;51.036;17.058;2023-07-29T00:39:50;3.60;;;2.40;;
68310;SDS011;55157;51.036;17.058;2023-07-29T00:42:15;3.90;;;2.20;;
68310;SDS011;55157;51.036;17.058;2023-07-29T00:44:41;4.30;;;2.50;;
68310;SDS011;55157;51.036;17.058;2023-07-29T00:47:06;4.93;;;2.38;;
68310;SDS011;55157;51.036;17.058;2023-07-29T00:49:32;3.78;;;2.15;;
68310;SDS011;55157;51.036;17.058;2023-07-29T00:51:57;5.55;;;2.33;;
68310;SDS011;55157;51.036;17.058;2023-07-29T00:54:24;3.58;;;2.10;;
68310;SDS011;55157;51.036;17.058;2023-07-29T00:56:49;4.30;;;2.22;;
68310;SDS011;55157;51.036;17.058;2023-07-29T00:59:14;4.93;;;2.35;;
68310;SDS011;55157;51.036;17.058;2023-07-29T01:01:40;3.58;;;1.98;;
68310;SDS011;55157;51.036;17.058;2023-07-29T01:04:05;4.20;;;2.28;;
68310;SDS011;55157;51.036;17.058;2023-07-29T01:06:33;2.97;;;2.15;;
68310;SDS011;55157;51.036;17.058;2023-07-29T01:09:01;2.45;;;2.17;;
68310;SDS011;55157;51.036;17.058;2023-07-29T01:11:32;4.70;;;2.10;;
68310;SDS011;55157;51.036;17.058;2023-07-29T01:13:59;5.55;;;2.30;;
68310;SDS011;55157;51.036;17.058;2023-07-29T01:16:28;3.30;;;1.85;;
68310;SDS011;55157;51.036;17.058;2023-07-29T01:18:55;4.00;;;2.08;;
68310;SDS011;55157;51.036;17.058;2023-07-29T01:21:21;3.78;;;2.30;;
68310;SDS011;55157;51.036;17.058;2023-07-29T01:23:48;3.42;;;2.35;;
68310;SDS011;55157;51.036;17.058;2023-07-29T01:26:17;6.63;;;3.00;;
68310;SDS011;55157;51.036;17.058;2023-07-29T01:28:42;10.63;;;3.15;;
68310;SDS011;55157;51.036;17.058;2023-07-29T01:31:09;6.47;;;2.30;;
68310;SDS011;55157;51.036;17.058;2023-07-29T01:33:35;4.90;;;2.35;;
68310;SDS011;55157;51.036;17.058;2023-07-29T01:36:05;3.35;;;2.30;;
68310;SDS011;55157;51.036;17.058;2023-07-29T01:38:33;13.48;;;2.97;;
68310;SDS011;55157;51.036;17.058;2023-07-29T01:41:00;2.83;;;2.10;;
68310;SDS011;55157;51.036;17.058;2023-07-29T01:43:26;3.80;;;2.83;;
68310;SDS011;55157;51.036;17.058;2023-07-29T01:45:51;3.25;;;2.65;;
68310;SDS011;55157;51.036;17.058;2023-07-29T01:48:16;3.60;;;2.35;;
68310;SDS011;55157;51.036;17.058;2023-07-29T01:50:42;7.20;;;2.83;;
68310;SDS011;55157;51.036;17.058;2023-07-29T01:53:07;7.72;;;2.50;;
68310;SDS011;55157;51.036;17.058;2023-07-29T01:55:32;3.50;;;2.30;;
68310;SDS011;55157;51.036;17.058;2023-07-29T01:57:59;5.60;;;2.55;;
68310;SDS011;55157;51.036;17.058;2023-07-29T02:00:24;3.78;;;2.55;;
68310;SDS011;55157;51.036;17.058;2023-07-29T02:02:49;4.82;;;2.92;;
68310;SDS011;55157;51.036;17.058;2023-07-29T02:05:15;3.45;;;2.17;;
68310;SDS011;55157;51.036;17.058;2023-07-29T02:07:40;4.03;;;2.30;;
68310;SDS011;55157;51.036;17.058;2023-07-29T02:10:05;5.15;;;2.85;;
68310;SDS011;55157;51.036;17.058;2023-07-29T02:12:31;5.03;;;2.22;;
68310;SDS011;55157;51.036;17.058;2023-07-29T02:14:57;3.97;;;2.47;;
68310;SDS011;55157;51.036;17.058;2023-07-29T02:17:23;8.23;;;2.78;;
68310;SDS011;55157;51.036;17.058;2023-07-29T02:19:48;3.15;;;2.28;;
68310;SDS011;55157;51.036;17.058;2023-07-29T02:22:13;3.47;;;2.28;;
68310;SDS011;55157;51.036;17.058;2023-07-29T02:24:39;4.78;;;2.50;;
68310;SDS011;55157;51.036;17.058;2023-07-29T02:27:06;2.83;;;2.05;;
68310;SDS011;55157;51.036;17.058;2023-07-29T02:29:31;3.50;;;2.17;;
68310;SDS011;55157;51.036;17.058;2023-07-29T02:31:58;5.25;;;2.38;;
68310;SDS011;55157;51.036;17.058;2023-07-29T02:34:23;3.72;;;2.28;;
68310;SDS011;55157;51.036;17.058;2023-07-29T02:36:48;5.00;;;2.70;;
68310;SDS011;55157;51.036;17.058;2023-07-29T02:39:13;6.13;;;2.33;;
68310;SDS011;55157;51.036;17.058;2023-07-29T02:41:39;5.10;;;3.15;;
68310;SDS011;55157;51.036;17.058;2023-07-29T02:44:04;9.18;;;2.58;;
68310;SDS011;55157;51.036;17.058;2023-07-29T02:46:30;5.38;;;2.92;;
68310;SDS011;55157;51.036;17.058;2023-07-29T02:48:56;9.02;;;2.80;;
68310;SDS011;55157;51.036;17.058;2023-07-29T02:51:22;3.15;;;2.15;;
68310;SDS011;55157;51.036;17.058;2023-07-29T02:53:47;7.63;;;2.78;;
68310;SDS011;55157;51.036;17.058;2023-07-29T02:56:12;5.70;;;2.72;;
68310;SDS011;55157;51.036;17.058;2023-07-29T02:58:37;4.38;;;2.60;;
68310;SDS011;55157;51.036;17.058;2023-07-29T03:01:03;6.20;;;2.30;;
68310;SDS011;55157;51.036;17.058;2023-07-29T03:03:28;3.58;;;2.22;;
68310;SDS011;55157;51.036;17.058;2023-07-29T03:05:58;4.95;;;2.13;;
68310;SDS011;55157;51.036;17.058;2023-07-29T03:08:23;6.25;;;2.70;;
68310;SDS011;55157;51.036;17.058;2023-07-29T03:10:48;4.55;;;2.22;;
68310;SDS011;55157;51.036;17.058;2023-07-29T03:13:14;3.30;;;2.30;;
68310;SDS011;55157;51.036;17.058;2023-07-29T03:15:39;6.80;;;2.65;;
68310;SDS011;55157;51.036;17.058;2023-07-29T03:18:04;8.32;;;2.50;;
68310;SDS011;55157;51.036;17.058;2023-07-29T03:20:29;4.65;;;2.53;;
68310;SDS011;55157;51.036;17.058;2023-07-29T03:22:56;5.03;;;2.85;;
68310;SDS011;55157;51.036;17.058;2023-07-29T03:25:21;2.60;;;2.40;;
68310;SDS011;55157;51.036;17.058;2023-07-29T03:27:46;4.10;;;2.05;;
68310;SDS011;55157;51.036;17.058;2023-07-29T03:30:12;3.45;;;2.40;;
68310;SDS011;55157;51.036;17.058;2023-07-29T03:32:39;2.30;;;2.08;;
68310;SDS011;55157;51.036;17.058;2023-07-29T03:35:04;7.28;;;2.25;;
68310;SDS011;55157;51.036;17.058;2023-07-29T03:37:29;9.05;;;3.13;;
68310;SDS011;55157;51.036;17.058;2023-07-29T03:39:56;3.40;;;2.22;;
68310;SDS011;55157;51.036;17.058;2023-07-29T03:42:21;8.02;;;2.97;;
68310;SDS011;55157;51.036;17.058;2023-07-29T03:44:47;4.65;;;2.60;;
68310;SDS011;55157;51.036;17.058;2023-07-29T03:47:12;4.57;;;2.65;;
68310;SDS011;55157;51.036;17.058;2023-07-29T03:49:37;7.63;;;2.83;;
68310;SDS011;55157;51.036;17.058;2023-07-29T03:52:02;3.53;;;2.58;;
68310;SDS011;55157;51.036;17.058;2023-07-29T03:54:28;3.92;;;3.15;;
68310;SDS011;55157;51.036;17.058;2023-07-29T03:56:54;3.55;;;2.65;;
68310;SDS011;55157;51.036;17.058;2023-07-29T03:59:20;5.68;;;3.00;;
68310;SDS011;55157;51.036;17.058;2023-07-29T04:01:45;3.42;;;3.03;;
68310;SDS011;55157;51.036;17.058;2023-07-29T04:04:10;3.95;;;3.40;;
68310;SDS011;55157;51.036;17.058;2023-07-29T04:06:35;6.30;;;3.03;;
68310;SDS011;55157;51.036;17.058;2023-07-29T04:09:01;7.90;;;3.35;;
68310;SDS011;55157;51.036;17.058;2023-07-29T04:11:26;6.22;;;3.20;;
68310;SDS011;55157;51.036;17.058;2023-07-29T04:13:53;4.82;;;3.42;;
68310;SDS011;55157;51.036;17.058;2023-07-29T04:16:18;4.97;;;3.15;;
68310;SDS011;55157;51.036;17.058;2023-07-29T04:18:43;5.30;;;2.78;;
68310;SDS011;55157;51.036;17.058;2023-07-29T04:21:08;3.33;;;2.88;;
68310;SDS011;55157;51.036;17.058;2023-07-29T04:23:34;3.50;;;2.50;;
68310;SDS011;55157;51.036;17.058;2023-07-29T04:25:59;6.18;;;2.80;;
68310;SDS011;55157;51.036;17.058;2023-07-29T04:28:24;6.13;;;2.75;;
68310;SDS011;55157;51.036;17.058;2023-07-29T04:30:51;5.15;;;2.83;;
68310;SDS011;55157;51.036;17.058;2023-07-29T04:33:16;5.93;;;2.50;;
68310;SDS011;55157;51.036;17.058;2023-07-29T04:35:41;3.55;;;2.63;;
68310;SDS011;55157;51.036;17.058;2023-07-29T04:38:06;5.43;;;2.67;;
68310;SDS011;55157;51.036;17.058;2023-07-29T04:40:32;3.78;;;2.40;;
68310;SDS011;55157;51.036;17.058;2023-07-29T04:42:57;5.45;;;3.00;;
68310;SDS011;55157;51.036;17.058;2023-07-29T04:45:27;10.32;;;2.88;;
68310;SDS011;55157;51.036;17.058;2023-07-29T04:47:54;6.10;;;3.10;;
68310;SDS011;55157;51.036;17.058;2023-07-29T04:50:19;6.57;;;2.28;;
68310;SDS011;55157;51.036;17.058;2023-07-29T04:52:44;5.32;;;2.80;;
68310;SDS011;55157;51.036;17.058;2023-07-29T04:55:09;12.38;;;3.08;;
68310;SDS011;55157;51.036;17.058;2023-07-29T04:57:35;9.23;;;2.67;;
68310;SDS011;55157;51.036;17.058;2023-07-29T05:00:00;4.10;;;2.00;;
68310;SDS011;55157;51.036;17.058;2023-07-29T05:02:25;2.70;;;2.20;;
68310;SDS011;55157;51.036;17.058;2023-07-29T05:04:52;3.08;;;2.13;;
68310;SDS011;55157;51.036;17.058;2023-07-29T05:07:17;6.20;;;2.15;;
68310;SDS011;55157;51.036;17.058;2023-07-29T05:09:42;4.75;;;2.08;;
68310;SDS011;55157;51.036;17.058;2023-07-29T05:12:08;8.98;;;2.47;;
68310;SDS011;55157;51.036;17.058;2023-07-29T05:14:33;5.07;;;2.53;;
68310;SDS011;55157;51.036;17.058;2023-07-29T05:16:58;4.13;;;2.65;;
68310;SDS011;55157;51.036;17.058;2023-07-29T05:19:23;4.93;;;2.47;;
68310;SDS011;55157;51.036;17.058;2023-07-29T05:21:50;4.25;;;2.60;;
68310;SDS011;55157;51.036;17.058;2023-07-29T05:24:15;5.38;;;2.85;;
68310;SDS011;55157;51.036;17.058;2023-07-29T05:26:40;3.30;;;2.05;;
68310;SDS011;55157;51.036;17.058;2023-07-29T05:29:06;4.28;;;2.45;;
68310;SDS011;55157;51.036;17.058;2023-07-29T05:31:31;5.13;;;2.70;;
68310;SDS011;55157;51.036;17.058;2023-07-29T05:33:56;4.45;;;2.33;;
68310;SDS011;55157;51.036;17.058;2023-07-29T05:36:21;7.05;;;2.08;;
68310;SDS011;55157;51.036;17.058;2023-07-29T05:38:48;2.83;;;2.17;;
68310;SDS011;55157;51.036;17.058;2023-07-29T05:41:13;5.40;;;2.42;;
68310;SDS011;55157;51.036;17.058;2023-07-29T05:43:39;4.75;;;2.00;;
68310;SDS011;55157;51.036;17.058;2023-07-29T05:46:04;4.90;;;2.30;;
68310;SDS011;55157;51.036;17.058;2023-07-29T05:48:29;2.45;;;1.95;;
68310;SDS011;55157;51.036;17.058;2023-07-29T05:50:54;4.35;;;2.08;;
68310;SDS011;55157;51.036;17.058;2023-07-29T05:53:20;3.45;;;1.90;;
68310;SDS011;55157;51.036;17.058;2023-07-29T05:55:46;5.88;;;1.92;;
68310;SDS011;55157;51.036;17.058;2023-07-29T05:58:11;2.55;;;1.60;;
68310;SDS011;55157;51.036;17.058;2023-07-29T06:00:37;5.75;;;2.05;;
68310;SDS011;55157;51.036;17.058;2023-07-29T06:03:02;2.28;;;1.40;;
68310;SDS011;55157;51.036;17.058;2023-07-29T06:05:27;6.38;;;2.00;;
68310;SDS011;55157;51.036;17.058;2023-07-29T06:07:52;2.80;;;1.80;;
68310;SDS011;55157;51.036;17.058;2023-07-29T06:10:18;3.55;;;2.13;;
68310;SDS011;55157;51.036;17.058;2023-07-29T06:12:44;3.40;;;1.50;;
68310;SDS011;55157;51.036;17.058;2023-07-29T06:15:10;2.88;;;1.88;;
68310;SDS011;55157;51.036;17.058;2023-07-29T06:17:35;7.30;;;1.90;;
68310;SDS011;55157;51.036;17.058;2023-07-29T06:20:00;2.90;;;1.67;;
68310;SDS011;55157;51.036;17.058;2023-07-29T06:22:26;3.08;;;1.70;;
68310;SDS011;55157;51.036;17.058;2023-07-29T06:24:51;3.78;;;1.73;;
68310;SDS011;55157;51.036;17.058;2023-07-29T06:27:16;2.42;;;1.58;;
68310;SDS011;55157;51.036;17.058;2023-07-29T06:29:43;4.72;;;1.45;;
68310;SDS011;55157;51.036;17.058;2023-07-29T06:32:08;4.32;;;1.67;;
68310;SDS011;55157;51.036;17.058;2023-07-29T06:34:33;9.07;;;2.00;;
68310;SDS011;55157;51.036;17.058;2023-07-29T06:36:59;2.08;;;1.42;;
68310;SDS011;55157;51.036;17.058;2023-07-29T06:39:24;4.88;;;1.50;;
68310;SDS011;55157;51.036;17.058;2023-07-29T06:41:49;2.42;;;1.50;;
68310;SDS011;55157;51.036;17.058;2023-07-29T06:44:14;9.68;;;1.70;;
68310;SDS011;55157;51.036;17.058;2023-07-29T06:46:41;5.03;;;1.40;;
68310;SDS011;55157;51.036;17.058;2023-07-29T06:49:06;2.65;;;1.50;;
68310;SDS011;55157;51.036;17.058;2023-07-29T06:51:32;2.30;;;1.45;;
68310;SDS011;55157;51.036;17.058;2023-07-29T06:53:57;5.50;;;1.38;;
68310;SDS011;55157;51.036;17.058;2023-07-29T06:56:22;9.18;;;1.75;;
68310;SDS011;55157;51.036;17.058;2023-07-29T06:58:48;2.67;;;1.35;;
68310;SDS011;55157;51.036;17.058;2023-07-29T07:01:13;3.25;;;1.40;;
68310;SDS011;55157;51.036;17.058;2023-07-29T07:03:40;1.85;;;1.30;;
68310;SDS011;55157;51.036;17.058;2023-07-29T07:06:05;1.13;;;0.95;;
68310;SDS011;55157;51.036;17.058;2023-07-29T07:08:30;3.20;;;1.30;;
68310;SDS011;55157;51.036;17.058;2023-07-29T07:10:56;2.25;;;0.90;;
68310;SDS011;55157;51.036;17.058;2023-07-29T07:13:21;1.73;;;0.95;;
68310;SDS011;55157;51.036;17.058;2023-07-29T07:15:46;2.28;;;1.17;;
68310;SDS011;55157;51.036;17.058;2023-07-29T07:18:11;2.50;;;1.13;;
68310;SDS011;55157;51.036;17.058;2023-07-29T07:20:38;1.80;;;1.20;;
68310;SDS011;55157;51.036;17.058;2023-07-29T07:23:04;2.42;;;1.38;;
68310;SDS011;55157;51.036;17.058;2023-07-29T07:25:29;1.00;;;0.88;;
68310;SDS011;55157;51.036;17.058;2023-07-29T07:27:54;1.70;;;1.23;;
68310;SDS011;55157;51.036;17.058;2023-07-29T07:30:19;3.72;;;1.05;;
68310;SDS011;55157;51.036;17.058;2023-07-29T07:32:45;1.65;;;0.85;;
68310;SDS011;55157;51.036;17.058;2023-07-29T07:35:10;6.43;;;1.10;;
68310;SDS011;55157;51.036;17.058;2023-07-29T07:37:37;1.33;;;1.10;;
68310;SDS011;55157;51.036;17.058;2023-07-29T07:40:02;2.05;;;0.90;;
68310;SDS011;55157;51.036;17.058;2023-07-29T07:42:27;1.52;;;0.90;;
68310;SDS011;55157;51.036;17.058;2023-07-29T07:44:52;1.43;;;1.03;;
68310;SDS011;55157;51.036;17.058;2023-07-29T07:47:18;1.33;;;0.90;;
68310;SDS011;55157;51.036;17.058;2023-07-29T07:49:43;2.10;;;1.10;;
68310;SDS011;55157;51.036;17.058;2023-07-29T07:52:08;1.57;;;1.10;;
68310;SDS011;55157;51.036;17.058;2023-07-29T07:54:35;4.07;;;1.30;;
68310;SDS011;55157;51.036;17.058;2023-07-29T07:57:00;1.92;;;1.02;;
68310;SDS011;55157;51.036;17.058;2023-07-29T07:59:25;1.95;;;1.02;;
68310;SDS011;55157;51.036;17.058;2023-07-29T08:01:50;3.40;;;1.00;;
68310;SDS011;55157;51.036;17.058;2023-07-29T08:04:16;4.03;;;1.10;;
68310;SDS011;55157;51.036;17.058;2023-07-29T08:06:41;2.83;;;0.90;;
68310;SDS011;55157;51.036;17.058;2023-07-29T08:09:06;6.20;;;1.20;;
68310;SDS011;55157;51.036;17.058;2023-07-29T08:11:33;2.03;;;0.73;;
68310;SDS011;55157;51.036;17.058;2023-07-29T08:13:58;1.35;;;0.73;;
68310;SDS011;55157;51.036;17.058;2023-07-29T08:16:23;2.20;;;0.90;;
68310;SDS011;55157;51.036;17.058;2023-07-29T08:18:49;1.20;;;0.83;;
68310;SDS011;55157;51.036;17.058;2023-07-29T08:21:14;3.67;;;0.80;;
68310;SDS011;55157;51.036;17.058;2023-07-29T08:23:39;3.22;;;0.80;;
68310;SDS011;55157;51.036;17.058;2023-07-29T08:26:05;3.63;;;0.80;;
68310;SDS011;55157;51.036;17.058;2023-07-29T08:28:34;1.35;;;0.98;;
68310;SDS011;55157;51.036;17.058;2023-07-29T08:30:59;2.55;;;1.73;;
68310;SDS011;55157;51.036;17.058;2023-07-29T08:33:24;2.03;;;0.95;;
68310;SDS011;55157;51.036;17.058;2023-07-29T08:35:50;3.15;;;1.10;;
68310;SDS011;55157;51.036;17.058;2023-07-29T08:38:15;2.25;;;0.95;;
68310;SDS011;55157;51.036;17.058;2023-07-29T08:40:42;0.97;;;0.80;;
68310;SDS011;55157;51.036;17.058;2023-07-29T08:43:07;3.05;;;1.05;;
68310;SDS011;55157;51.036;17.058;2023-07-29T08:45:35;1.55;;;1.00;;
68310;SDS011;55157;51.036;17.058;2023-07-29T08:48:00;2.55;;;0.88;;
68310;SDS011;55157;51.036;17.058;2023-07-29T08:50:27;1.15;;;0.70;;
68310;SDS011;55157;51.036;17.058;2023-07-29T08:52:53;3.78;;;2.10;;
68310;SDS011;55157;51.036;17.058;2023-07-29T08:55:18;4.85;;;1.25;;
68310;SDS011;55157;51.036;17.058;2023-07-29T08:57:44;7.55;;;1.60;;
68310;SDS011;55157;51.036;17.058;2023-07-29T09:00:09;4.68;;;1.10;;
68310;SDS011;55157;51.036;17.058;2023-07-29T09:02:36;1.40;;;1.10;;
68310;SDS011;55157;51.036;17.058;2023-07-29T09:05:02;1.73;;;0.75;;
68310;SDS011;55157;51.036;17.058;2023-07-29T09:07:27;3.55;;;0.80;;
68310;SDS011;55157;51.036;17.058;2023-07-29T09:09:53;1.63;;;0.70;;
68310;SDS011;55157;51.036;17.058;2023-07-29T09:12:19;1.30;;;0.83;;
68310;SDS011;55157;51.036;17.058;2023-07-29T09:14:44;1.20;;;0.90;;
68310;SDS011;55157;51.036;17.058;2023-07-29T09:17:09;3.80;;;0.70;;
68310;SDS011;55157;51.036;17.058;2023-07-29T09:19:36;1.88;;;0.73;;
68310;SDS011;55157;51.036;17.058;2023-07-29T09:22:02;4.57;;;0.93;;
68310;SDS011;55157;51.036;17.058;2023-07-29T09:24:27;1.00;;;0.85;;
68310;SDS011;55157;51.036;17.058;2023-07-29T09:26:53;1.00;;;0.80;;
68310;SDS011;55157;51.036;17.058;2023-07-29T09:29:21;9.33;;;1.33;;
68310;SDS011;55157;51.036;17.058;2023-07-29T09:31:46;2.55;;;0.70;;
68310;SDS011;55157;51.036;17.058;2023-07-29T09:34:12;4.53;;;0.80;;
68310;SDS011;55157;51.036;17.058;2023-07-29T09:36:41;4.97;;;0.85;;
68310;SDS011;55157;51.036;17.058;2023-07-29T09:39:10;1.75;;;1.00;;
68310;SDS011;55157;51.036;17.058;2023-07-29T09:41:35;0.80;;;0.60;;
68310;SDS011;55157;51.036;17.058;2023-07-29T09:44:01;4.57;;;1.10;;
68310;SDS011;55157;51.036;17.058;2023-07-29T09:46:31;1.30;;;0.90;;
68310;SDS011;55157;51.036;17.058;2023-07-29T09:48:56;2.08;;;0.90;;
68310;SDS011;55157;51.036;17.058;2023-07-29T09:51:22;2.30;;;1.00;;
68310;SDS011;55157;51.036;17.058;2023-07-29T09:53:49;1.15;;;0.90;;
68310;SDS011;55157;51.036;17.058;2023-07-29T09:56:15;4.93;;;0.77;;
68310;SDS011;55157;51.036;17.058;2023-07-29T09:58:40;3.90;;;0.98;;
68310;SDS011;55157;51.036;17.058;2023-07-29T10:01:07;2.05;;;1.30;;
68310;SDS011;55157;51.036;17.058;2023-07-29T10:03:33;1.60;;;1.15;;
68310;SDS011;55157;51.036;17.058;2023-07-29T10:05:59;2.15;;;1.27;;
68310;SDS011;55157;51.036;17.058;2023-07-29T10:08:25;4.82;;;1.38;;
68310;SDS011;55157;51.036;17.058;2023-07-29T10:10:51;2.92;;;1.25;;
68310;SDS011;55157;51.036;17.058;2023-07-29T10:13:17;2.92;;;1.17;;
68310;SDS011;55157;51.036;17.058;2023-07-29T10:15:44;3.05;;;1.15;;
68310;SDS011;55157;51.036;17.058;2023-07-29T10:18:10;1.98;;;1.20;;
68310;SDS011;55157;51.036;17.058;2023-07-29T10:20:35;1.55;;;1.20;;
68310;SDS011;55157;51.036;17.058;2023-07-29T10:23:01;7.13;;;1.30;;
68310;SDS011;55157;51.036;17.058;2023-07-29T10:25:30;1.90;;;1.35;;
68310;SDS011;55157;51.036;17.058;2023-07-29T10:28:00;4.63;;;1.20;;
68310;SDS011;55157;51.036;17.058;2023-07-29T10:30:29;1.92;;;1.33;;
68310;SDS011;55157;51.036;17.058;2023-07-29T10:32:55;7.95;;;1.67;;
68310;SDS011;55157;51.036;17.058;2023-07-29T10:35:23;6.22;;;1.35;;
68310;SDS011;55157;51.036;17.058;2023-07-29T10:37:48;1.50;;;1.33;;
68310;SDS011;55157;51.036;17.058;2023-07-29T10:40:13;3.28;;;1.35;;
68310;SDS011;55157;51.036;17.058;2023-07-29T10:42:39;2.93;;;1.47;;
68310;SDS011;55157;51.036;17.058;2023-07-29T10:45:25;5.03;;;1.30;;
68310;SDS011;55157;51.036;17.058;2023-07-29T10:47:50;1.67;;;1.48;;
68310;SDS011;55157;51.036;17.058;2023-07-29T10:50:18;2.23;;;1.30;;
68310;SDS011;55157;51.036;17.058;2023-07-29T10:52:44;1.98;;;1.15;;
68310;SDS011;55157;51.036;17.058;2023-07-29T10:55:26;2.97;;;1.17;;
68310;SDS011;55157;51.036;17.058;2023-07-29T10:58:04;4.65;;;1.15;;
68310;SDS011;55157;51.036;17.058;2023-07-29T11:00:31;1.40;;;1.30;;
68310;SDS011;55157;51.036;17.058;2023-07-29T11:02:58;2.30;;;1.27;;
68310;SDS011;55157;51.036;17.058;2023-07-29T11:05:24;1.70;;;1.30;;
68310;SDS011;55157;51.036;17.058;2023-07-29T11:07:49;1.58;;;1.30;;
68310;SDS011;55157;51.036;17.058;2023-07-29T11:10:15;1.67;;;1.17;;
68310;SDS011;55157;51.036;17.058;2023-07-29T11:12:41;1.48;;;1.25;;
68310;SDS011;55157;51.036;17.058;2023-07-29T11:15:17;1.92;;;1.15;;
68310;SDS011;55157;51.036;17.058;2023-07-29T11:17:44;1.45;;;1.10;;
68310;SDS011;55157;51.036;17.058;2023-07-29T11:20:10;3.78;;;0.90;;
68310;SDS011;55157;51.036;17.058;2023-07-29T11:22:36;45.70;;;2.03;;
68310;SDS011;55157;51.036;17.058;2023-07-29T11:25:02;1.50;;;1.10;;
68310;SDS011;55157;51.036;17.058;2023-07-29T11:27:27;1.15;;;0.90;;
68310;SDS011;55157;51.036;17.058;2023-07-29T11:29:56;2.00;;;1.00;;
68310;SDS011;55157;51.036;17.058;2023-07-29T11:32:21;1.25;;;1.00;;
68310;SDS011;55157;51.036;17.058;2023-07-29T11:34:48;1.47;;;0.80;;
68310;SDS011;55157;51.036;17.058;2023-07-29T11:37:13;1.00;;;0.80;;
68310;SDS011;55157;51.036;17.058;2023-07-29T11:39:39;1.63;;;0.93;;
68310;SDS011;55157;51.036;17.058;2023-07-29T11:42:05;3.15;;;1.30;;
68310;SDS011;55157;51.036;17.058;2023-07-29T11:44:30;1.95;;;1.10;;
68310;SDS011;55157;51.036;17.058;2023-07-29T11:46:55;1.67;;;0.60;;
68310;SDS011;55157;51.036;17.058;2023-07-29T11:49:20;1.30;;;0.80;;
68310;SDS011;55157;51.036;17.058;2023-07-29T11:51:47;1.20;;;0.77;;
68310;SDS011;55157;51.036;17.058;2023-07-29T11:54:12;1.00;;;0.80;;
68310;SDS011;55157;51.036;17.058;2023-07-29T11:56:38;1.88;;;1.02;;
68310;SDS011;55157;51.036;17.058;2023-07-29T11:59:03;1.08;;;0.70;;
68310;SDS011;55157;51.036;17.058;2023-07-29T12:01:28;3.97;;;1.25;;
68310;SDS011;55157;51.036;17.058;2023-07-29T12:03:54;4.90;;;1.00;;
68310;SDS011;55157;51.036;17.058;2023-07-29T12:06:20;1.05;;;0.73;;
68310;SDS011;55157;51.036;17.058;2023-07-29T12:08:46;4.35;;;1.15;;
68310;SDS011;55157;51.036;17.058;2023-07-29T12:11:12;3.20;;;1.00;;
68310;SDS011;55157;51.036;17.058;2023-07-29T12:13:37;4.10;;;0.88;;
68310;SDS011;55157;51.036;17.058;2023-07-29T12:16:03;6.03;;;1.37;;
68310;SDS011;55157;51.036;17.058;2023-07-29T12:18:29;3.42;;;1.70;;
68310;SDS011;55157;51.036;17.058;2023-07-29T12:20:55;2.05;;;1.05;;
68310;SDS011;55157;51.036;17.058;2023-07-29T12:23:24;2.30;;;0.90;;
68310;SDS011;55157;51.036;17.058;2023-07-29T12:25:51;3.72;;;0.90;;
68310;SDS011;55157;51.036;17.058;2023-07-29T12:28:16;0.70;;;0.60;;
68310;SDS011;55157;51.036;17.058;2023-07-29T12:30:41;1.43;;;0.87;;
68310;SDS011;55157;51.036;17.058;2023-07-29T12:33:07;2.90;;;0.70;;
68310;SDS011;55157;51.036;17.058;2023-07-29T12:35:36;5.90;;;1.00;;
68310;SDS011;55157;51.036;17.058;2023-07-29T12:38:01;1.80;;;0.82;;
68310;SDS011;55157;51.036;17.058;2023-07-29T12:40:26;4.95;;;0.98;;
68310;SDS011;55157;51.036;17.058;2023-07-29T12:42:53;1.20;;;0.55;;
68310;SDS011;55157;51.036;17.058;2023-07-29T12:45:19;4.10;;;1.02;;
68310;SDS011;55157;51.036;17.058;2023-07-29T12:47:44;1.73;;;1.05;;
68310;SDS011;55157;51.036;17.058;2023-07-29T12:50:09;5.07;;;0.70;;
68310;SDS011;55157;51.036;17.058;2023-07-29T12:52:35;5.30;;;1.05;;
68310;SDS011;55157;51.036;17.058;2023-07-29T12:55:00;7.23;;;1.00;;
68310;SDS011;55157;51.036;17.058;2023-07-29T12:57:25;1.47;;;0.70;;
68310;SDS011;55157;51.036;17.058;2023-07-29T12:59:52;1.73;;;0.70;;
68310;SDS011;55157;51.036;17.058;2023-07-29T13:02:17;2.05;;;0.90;;
68310;SDS011;55157;51.036;17.058;2023-07-29T13:04:42;4.30;;;1.00;;
68310;SDS011;55157;51.036;17.058;2023-07-29T13:07:08;1.67;;;1.10;;
68310;SDS011;55157;51.036;17.058;2023-07-29T13:09:33;1.10;;;0.87;;
68310;SDS011;55157;51.036;17.058;2023-07-29T13:11:58;1.33;;;0.90;;
68310;SDS011;55157;51.036;17.058;2023-07-29T13:14:23;5.13;;;0.80;;
68310;SDS011;55157;51.036;17.058;2023-07-29T13:16:50;2.37;;;0.83;;
68310;SDS011;55157;51.036;17.058;2023-07-29T13:19:15;3.70;;;0.90;;
68310;SDS011;55157;51.036;17.058;2023-07-29T13:21:41;0.77;;;0.70;;
68310;SDS011;55157;51.036;17.058;2023-07-29T13:24:06;2.87;;;1.40;;
68310;SDS011;55157;51.036;17.058;2023-07-29T13:26:31;1.77;;;1.47;;
68310;SDS011;55157;51.036;17.058;2023-07-29T13:28:56;5.97;;;5.03;;
68310;SDS011;55157;51.036;17.058;2023-07-29T13:31:22;3.07;;;1.87;;
68310;SDS011;55157;51.036;17.058;2023-07-29T13:33:48;1.80;;;0.82;;
68310;SDS011;55157;51.036;17.058;2023-07-29T13:36:13;1.13;;;0.70;;
68310;SDS011;55157;51.036;17.058;2023-07-29T13:38:39;6.17;;;3.43;;
68310;SDS011;55157;51.036;17.058;2023-07-29T13:41:04;7.43;;;3.30;;
68310;SDS011;55157;51.036;17.058;2023-07-29T13:43:29;6.40;;;1.17;;
68310;SDS011;55157;51.036;17.058;2023-07-29T13:45:54;2.17;;;1.77;;
68310;SDS011;55157;51.036;17.058;2023-07-29T13:48:20;3.90;;;2.50;;
68310;SDS011;55157;51.036;17.058;2023-07-29T13:50:47;2.42;;;2.08;;
68310;SDS011;55157;51.036;17.058;2023-07-29T13:53:12;7.13;;;1.33;;
68310;SDS011;55157;51.036;17.058;2023-07-29T13:55:37;7.60;;;1.10;;
68310;SDS011;55157;51.036;17.058;2023-07-29T13:58:02;2.00;;;1.00;;
68310;SDS011;55157;51.036;17.058;2023-07-29T14:00:28;1.17;;;0.65;;
68310;SDS011;55157;51.036;17.058;2023-07-29T14:02:53;1.10;;;0.70;;
68310;SDS011;55157;51.036;17.058;2023-07-29T14:05:18;0.80;;;0.50;;
68310;SDS011;55157;51.036;17.058;2023-07-29T14:07:45;2.55;;;0.60;;
68310;SDS011;55157;51.036;17.058;2023-07-29T14:10:10;7.28;;;0.82;;
68310;SDS011;55157;51.036;17.058;2023-07-29T14:12:35;1.87;;;0.60;;
68310;SDS011;55157;51.036;17.058;2023-07-29T14:15:00;2.78;;;0.70;;
68310;SDS011;55157;51.036;17.058;2023-07-29T14:17:26;1.10;;;0.63;;
68310;SDS011;55157;51.036;17.058;2023-07-29T14:19:51;0.93;;;0.80;;
68310;SDS011;55157;51.036;17.058;2023-07-29T14:22:16;1.00;;;0.70;;
68310;SDS011;55157;51.036;17.058;2023-07-29T14:24:43;1.67;;;0.87;;